Terminal Aerodrome Forecast
Issued by NWS Twin Cities, MN

Home | Current Version | Previous Version | Graphics & Text | Print | Product List | Glossary On
Versions: 1 2 3 4 5 6 7 8 9 10 11 12 13 14 15
936
FTUS43 KMPX 220520
TAFEAU
TAF
KEAU 220520Z 2206/2306 26008KT P6SM VCSH SCT025 BKN070
     FM220700 27010KT P6SM BKN070 BKN250
     FM221400 28013KT P6SM SCT250
     FM230000 22006KT P6SM BKN250=

USA.gov is the U.S. government's official web portal to all federal, state and local government web resources and services.